Time;durP1;ratioP1;P1;durP2;ratioP2;P2;SDS_P1;SDS_P2;PMS_P1;PMS_P2;Temp;Humidity;BMP_temperature;BMP_pressure;BME280_temperature;BME280_humidity;BME280_pressure;Samples;Min_cycle;Max_cycle;Signal;HPM_P1;HPM_P2
2022/10/24 00:00:41;;;;;;;21.85;13.63;;;;;;;15.44;100.00;101276.50;5060427;28;20492;-62
2022/10/24 00:03:06;;;;;;;19.33;13.18;;;;;;;15.42;100.00;101275.81;5066469;28;20029;-66
2022/10/24 00:05:31;;;;;;;34.92;15.63;;;;;;;15.41;100.00;101268.09;5063667;28;20383;-66
2022/10/24 00:07:57;;;;;;;37.58;16.40;;;;;;;15.39;100.00;101260.38;5067295;28;20081;-67
2022/10/24 00:10:22;;;;;;;34.00;16.00;;;;;;;15.36;100.00;101250.19;5062278;28;20871;-62
2022/10/24 00:12:48;;;;;;;28.00;15.05;;;;;;;15.34;100.00;101252.16;5064365;28;20062;-65
2022/10/24 00:15:14;;;;;;;23.75;13.05;;;;;;;15.32;100.00;101261.16;5063134;28;20028;-66
2022/10/24 00:17:40;;;;;;;21.45;13.20;;;;;;;15.30;100.00;101258.69;5064256;28;20033;-63
2022/10/24 00:20:06;;;;;;;19.30;14.00;;;;;;;15.30;100.00;101261.31;5064956;28;20036;-66
2022/10/24 00:22:32;;;;;;;24.13;16.63;;;;;;;15.32;100.00;101269.03;5063992;28;20032;-67
2022/10/24 00:24:57;;;;;;;22.98;15.60;;;;;;;15.33;100.00;101255.75;5063224;28;20085;-65
2022/10/24 00:27:23;;;;;;;23.42;15.32;;;;;;;15.36;100.00;101258.06;5064339;28;20028;-64
2022/10/24 00:29:49;;;;;;;20.33;13.23;;;;;;;15.37;100.00;101257.09;5062894;28;20104;-66
2022/10/24 00:32:15;;;;;;;28.23;16.25;;;;;;;15.38;100.00;101255.28;5064029;28;20028;-64
2022/10/24 00:34:40;;;;;;;32.60;16.67;;;;;;;15.37;100.00;101251.84;5063286;28;20028;-67
2022/10/24 00:37:06;;;;;;;24.40;16.33;;;;;;;15.39;100.00;101244.63;5066638;28;20152;-63
2022/10/24 00:39:31;;;;;;;34.58;17.73;;;;;;;15.44;100.00;101263.38;5063675;28;20024;-64
2022/10/24 00:42:00;;;;;;;31.92;18.02;;;;;;;15.46;100.00;101264.03;5063440;28;21824;-65
2022/10/24 00:44:31;;;;;;;26.92;15.27;;;;;;;15.44;100.00;101263.38;5067437;28;20075;-65
2022/10/24 00:47:16;;;;;;;29.95;16.33;;;;;;;15.38;100.00;101263.16;5068826;28;20025;-66
2022/10/24 00:49:50;;;;;;;24.60;14.37;;;;;;;15.33;100.00;101261.00;5066610;28;20090;-65
2022/10/24 00:52:21;;;;;;;31.48;16.08;;;;;;;15.34;100.00;101252.16;5070530;28;20691;-65
2022/10/24 00:54:49;;;;;;;31.10;16.27;;;;;;;15.37;100.00;101254.47;5068171;28;20067;-65
2022/10/24 00:57:30;;;;;;;33.22;17.20;;;;;;;15.34;100.00;101256.56;5067069;28;20040;-66
2022/10/24 01:00:10;;;;;;;26.45;16.92;;;;;;;15.32;100.00;101248.84;5063855;28;20400;-64
2022/10/24 01:02:36;;;;;;;25.13;15.80;;;;;;;15.36;100.00;101252.00;5062033;28;20029;-66
2022/10/24 01:05:03;;;;;;;23.65;15.32;;;;;;;15.39;100.00;101251.69;5057596;28;20029;-66
2022/10/24 01:07:34;;;;;;;29.13;16.13;;;;;;;15.38;100.00;101253.47;5060499;28;20531;-64
2022/10/24 01:10:10;;;;;;;28.80;16.02;;;;;;;15.36;100.00;101254.63;5057878;28;20128;-64
2022/10/24 01:12:59;;;;;;;28.60;14.45;;;;;;;15.32;100.00;101254.09;5059435;28;20029;-65
2022/10/24 01:15:41;;;;;;;31.13;15.68;;;;;;;15.32;100.00;101263.78;5057997;28;20099;-66
2022/10/24 01:18:17;;;;;;;25.58;15.07;;;;;;;15.33;100.00;101249.69;5066696;28;20039;-65
2022/10/24 01:21:10;;;;;;;27.55;15.30;;;;;;;15.31;100.00;101243.75;5065917;28;20071;-65
2022/10/24 01:23:41;;;;;;;29.85;15.38;;;;;;;15.32;100.00;101240.16;5061314;28;20541;-66
2022/10/24 01:26:32;;;;;;;24.35;14.80;;;;;;;15.30;100.00;101239.47;5057088;28;20168;-65
2022/10/24 01:29:15;;;;;;;24.10;14.45;;;;;;;15.24;100.00;101236.50;5065325;28;20036;-65
2022/10/24 01:31:58;;;;;;;21.83;14.00;;;;;;;15.24;100.00;101238.31;5062313;28;20044;-64
2022/10/24 01:34:38;;;;;;;22.67;15.50;;;;;;;15.30;100.00;101250.81;5064074;28;20433;-64
2022/10/24 01:37:20;;;;;;;24.67;15.55;;;;;;;15.34;100.00;101241.66;5062207;28;20036;-64
2022/10/24 01:40:02;;;;;;;19.55;13.55;;;;;;;15.32;100.00;101240.16;5056793;28;20046;-63
2022/10/24 01:42:31;;;;;;;19.00;13.57;;;;;;;15.33;100.00;101231.28;5063400;28;20416;-62
2022/10/24 01:45:00;;;;;;;24.98;13.45;;;;;;;15.31;100.00;101235.88;5061977;28;20036;-66
2022/10/24 01:47:31;;;;;;;20.48;13.65;;;;;;;15.31;100.00;101230.63;5064982;28;20032;-64
2022/10/24 01:50:01;;;;;;;23.35;13.90;;;;;;;15.33;100.00;101231.28;5056948;28;20082;-67
2022/10/24 01:52:32;;;;;;;17.88;11.65;;;;;;;15.34;100.00;101220.63;5063905;28;20129;-65
2022/10/24 01:54:58;;;;;;;26.05;14.20;;;;;;;15.33;100.00;101216.38;5062431;28;20476;-64
2022/10/24 01:57:28;;;;;;;18.50;11.15;;;;;;;15.35;100.00;101211.78;5063252;28;20036;-65
2022/10/24 01:59:53;;;;;;;20.75;12.40;;;;;;;15.37;100.00;101224.75;5065116;28;20178;-66
2022/10/24 02:02:57;;;;;;;25.60;13.52;;;;;;;15.34;100.00;101218.00;5057028;28;20447;-64
2022/10/24 02:05:46;;;;;;;31.02;13.68;;;;;;;15.33;100.00;101208.50;5023528;28;20044;-63
2022/10/24 02:08:17;;;;;;;19.90;13.68;;;;;;;15.38;100.00;101208.84;5045838;28;20060;-65
2022/10/24 02:10:47;;;;;;;17.55;13.02;;;;;;;15.40;100.00;101208.69;5060816;28;20446;-65
2022/10/24 02:13:30;;;;;;;21.08;14.00;;;;;;;15.40;100.00;101203.44;5062264;28;20472;-65
2022/10/24 02:15:59;;;;;;;25.02;12.52;;;;;;;15.42;100.00;101202.31;5062546;28;20044;-65
2022/10/24 02:18:25;;;;;;;29.15;14.55;;;;;;;15.43;100.00;101206.56;5057196;28;20350;-63
2022/10/24 02:20:56;;;;;;;28.17;14.90;;;;;;;15.44;100.00;101207.41;5059800;28;20459;-62
2022/10/24 02:23:37;;;;;;;24.13;14.23;;;;;;;15.41;100.00;101192.78;5062563;28;20531;-65
2022/10/24 02:26:06;;;;;;;26.05;15.27;;;;;;;15.41;100.00;101187.53;5058029;28;20036;-64
2022/10/24 02:28:39;;;;;;;25.60;14.77;;;;;;;15.41;100.00;101184.91;5056559;28;20467;-65
2022/10/24 02:31:20;;;;;;;21.38;13.35;;;;;;;15.41;100.00;101182.28;5058442;28;20072;-65
2022/10/24 02:33:48;;;;;;;19.52;13.32;;;;;;;15.43;100.00;101188.19;5064754;28;20036;-67
2022/10/24 02:36:17;;;;;;;33.00;15.93;;;;;;;15.45;100.00;101186.22;5058867;28;20037;-67
2022/10/24 02:38:45;;;;;;;23.17;14.55;;;;;;;15.45;100.00;101177.53;5062266;28;20470;-63
2022/10/24 02:41:17;;;;;;;21.15;13.20;;;;;;;15.47;100.00;101173.75;5062151;28;20028;-65
2022/10/24 02:43:45;;;;;;;22.17;14.02;;;;;;;15.47;100.00;101173.75;5055784;28;20040;-65
2022/10/24 02:46:13;;;;;;;23.38;13.48;;;;;;;15.48;100.00;101180.66;5056331;28;20036;-66
2022/10/24 02:48:44;;;;;;;24.50;14.88;;;;;;;15.47;100.00;101175.56;5058930;28;20032;-64
2022/10/24 02:51:11;;;;;;;22.98;14.73;;;;;;;15.45;100.00;101177.53;5060054;28;20391;-64
2022/10/24 02:53:38;;;;;;;19.58;13.20;;;;;;;15.44;100.00;101173.25;5055051;28;20079;-66
2022/10/24 02:56:04;;;;;;;25.50;15.15;;;;;;;15.43;100.00;101171.63;5067505;28;20123;-67
2022/10/24 02:58:29;;;;;;;20.42;13.48;;;;;;;15.44;100.00;101165.38;5062045;28;20574;-66
2022/10/24 03:00:55;;;;;;;23.20;14.15;;;;;;;15.44;100.00;101174.06;5059659;28;20126;-65
2022/10/24 03:03:21;;;;;;;25.90;14.38;;;;;;;15.47;100.00;101163.25;5053817;28;20043;-63
2022/10/24 03:05:47;;;;;;;18.45;13.15;;;;;;;15.46;100.00;101159.00;5065583;28;20062;-64
2022/10/24 03:08:13;;;;;;;25.40;14.77;;;;;;;15.47;100.00;101157.19;5055444;28;20029;-65
2022/10/24 03:10:38;;;;;;;30.55;15.85;;;;;;;15.48;100.00;101159.66;5071670;28;20106;-65
2022/10/24 03:13:04;;;;;;;25.80;15.15;;;;;;;15.49;100.00;101158.66;5061648;28;20114;-66
2022/10/24 03:15:29;;;;;;;22.10;13.63;;;;;;;15.50;100.00;101156.88;5056549;28;20048;-64
2022/10/24 03:17:55;;;;;;;23.42;13.65;;;;;;;15.52;100.00;101154.91;5063958;28;20073;-66
2022/10/24 03:20:20;;;;;;;16.35;11.55;;;;;;;15.53;100.00;101157.38;5064510;28;20025;-66
2022/10/24 03:22:46;;;;;;;19.88;13.07;;;;;;;15.53;100.00;101152.13;5060079;28;20020;-66
2022/10/24 03:25:11;;;;;;;21.60;12.98;;;;;;;15.55;100.00;101150.16;5062248;28;20059;-65
2022/10/24 03:27:37;;;;;;;23.13;14.07;;;;;;;15.57;100.00;101153.47;5047709;28;20017;-63
2022/10/24 03:30:03;;;;;;;18.35;12.38;;;;;;;15.57;100.00;101153.47;5056129;28;20060;-64
2022/10/24 03:32:29;;;;;;;22.30;13.73;;;;;;;15.60;100.00;101142.63;5059726;28;20114;-63
2022/10/24 03:34:54;;;;;;;19.98;12.90;;;;;;;15.60;100.00;101145.25;5062982;28;20063;-67
2022/10/24 03:37:20;;;;;;;16.77;12.77;;;;;;;15.62;100.00;101141.63;5061103;28;20524;-66
2022/10/24 03:39:45;;;;;;;20.27;14.70;;;;;;;15.65;100.00;101157.09;5054555;28;20079;-64
2022/10/24 03:42:11;;;;;;;24.63;15.15;;;;;;;15.65;100.00;101150.03;5061313;28;20052;-62
2022/10/24 03:44:37;;;;;;;21.40;14.18;;;;;;;15.66;100.00;101143.78;5060041;28;20638;-64
2022/10/24 03:47:02;;;;;;;26.02;14.32;;;;;;;15.68;100.00;101144.44;5054623;28;20120;-64
2022/10/24 03:49:28;;;;;;;15.73;12.98;;;;;;;15.68;100.00;101144.44;5058456;28;20028;-66
2022/10/24 03:51:53;;;;;;;25.77;14.68;;;;;;;15.70;100.00;101139.03;5058909;28;20033;-65
2022/10/24 03:54:19;;;;;;;25.38;14.13;;;;;;;15.70;100.00;101141.66;5059676;28;20115;-63
2022/10/24 03:56:46;;;;;;;21.35;13.90;;;;;;;15.69;100.00;101143.47;5058072;28;20340;-66
2022/10/24 03:59:12;;;;;;;23.00;14.70;;;;;;;15.70;100.00;101149.53;5059871;28;20075;-63
2022/10/24 04:01:38;;;;;;;22.58;13.82;;;;;;;15.72;100.00;101155.47;5059862;28;20021;-64
2022/10/24 04:04:04;;;;;;;22.50;14.07;;;;;;;15.72;100.00;101152.84;5062505;28;20436;-66
2022/10/24 04:06:29;;;;;;;27.15;15.18;;;;;;;15.71;100.00;101141.50;5053989;28;20044;-66
2022/10/24 04:08:56;;;;;;;21.25;13.40;;;;;;;15.67;100.00;101150.69;5060715;28;20036;-66
2022/10/24 04:11:22;;;;;;;21.35;13.52;;;;;;;15.70;100.00;101154.78;5056214;28;20329;-62
2022/10/24 04:13:48;;;;;;;18.10;13.18;;;;;;;15.70;100.00;101158.25;5057928;28;20025;-67
2022/10/24 04:16:13;;;;;;;21.35;13.43;;;;;;;15.67;100.00;101149.88;5057705;28;20036;-70
2022/10/24 04:18:39;;;;;;;20.05;15.32;;;;;;;15.68;100.00;101147.06;5057608;28;20028;-70
2022/10/24 04:21:05;;;;;;;23.30;14.75;;;;;;;15.70;100.00;101147.75;5063672;28;20036;-70
2022/10/24 04:23:34;;;;;;;21.42;14.20;;;;;;;15.73;100.00;101154.47;5066158;28;20114;-71
2022/10/24 04:26:00;;;;;;;21.30;14.38;;;;;;;15.71;100.00;101153.81;5077771;28;20365;-69
2022/10/24 04:28:28;;;;;;;23.27;13.95;;;;;;;15.69;100.00;101147.91;5059731;28;20478;-68
2022/10/24 04:30:57;;;;;;;17.88;13.32;;;;;;;15.67;100.00;101141.97;5062668;28;20303;-68
2022/10/24 04:33:23;;;;;;;17.20;12.52;;;;;;;15.69;100.00;101145.28;5066745;28;20024;-64
2022/10/24 04:35:50;;;;;;;19.38;14.25;;;;;;;15.73;100.00;101146.59;5061568;28;20024;-64
2022/10/24 04:38:15;;;;;;;28.48;14.63;;;;;;;15.73;100.00;101142.16;5065186;28;20032;-65
2022/10/24 04:40:45;;;;;;;23.58;13.82;;;;;;;15.73;100.00;101150.03;5057479;28;20051;-66
2022/10/24 04:43:11;;;;;;;19.92;11.95;;;;;;;15.74;100.00;101153.50;5078162;28;20049;-64
2022/10/24 04:45:36;;;;;;;24.27;15.13;;;;;;;15.75;100.00;101150.72;5058940;28;20070;-67
2022/10/24 04:48:02;;;;;;;26.08;15.32;;;;;;;15.76;100.00;101168.13;5061815;28;20612;-65
2022/10/24 04:50:27;;;;;;;24.27;15.38;;;;;;;15.75;100.00;101160.38;5056424;28;20436;-65
2022/10/24 04:52:53;;;;;;;25.38;14.82;;;;;;;15.76;100.00;101162.03;5064684;28;20036;-66
2022/10/24 04:55:18;;;;;;;20.88;13.30;;;;;;;15.76;100.00;101168.13;5066135;28;20025;-64
2022/10/24 04:57:43;;;;;;;20.48;14.63;;;;;;;15.75;100.00;101166.47;5065607;28;20076;-63
2022/10/24 05:00:09;;;;;;;26.73;14.60;;;;;;;15.76;100.00;101167.28;5058636;28;20111;-62
2022/10/24 05:02:35;;;;;;;21.90;14.63;;;;;;;15.76;100.00;101159.41;5061014;28;20155;-67
2022/10/24 05:05:00;;;;;;;24.80;14.50;;;;;;;15.76;100.00;101151.53;5060508;28;20336;-64
2022/10/24 05:07:26;;;;;;;22.23;14.02;;;;;;;15.76;100.00;101156.78;5065903;28;20430;-64
2022/10/24 05:09:51;;;;;;;23.70;14.63;;;;;;;15.76;100.00;101151.53;5066549;28;20103;-65
2022/10/24 05:12:17;;;;;;;20.13;13.00;;;;;;;15.74;100.00;101148.25;5064882;28;20039;-67
2022/10/24 05:14:45;;;;;;;20.88;13.77;;;;;;;15.73;100.00;101146.59;5067453;28;20023;-68
2022/10/24 05:17:12;;;;;;;18.38;13.70;;;;;;;15.71;100.00;101135.44;5061652;28;20112;-65
2022/10/24 05:19:37;;;;;;;27.33;14.73;;;;;;;15.72;100.00;101140.53;5065644;28;20028;-66
2022/10/24 05:22:03;;;;;;;23.08;15.00;;;;;;;15.75;100.00;101144.63;5063448;28;20032;-66
2022/10/24 05:24:29;;;;;;;23.90;16.55;;;;;;;15.76;100.00;101138.38;5066062;28;20066;-65
2022/10/24 05:26:54;;;;;;;21.73;15.05;;;;;;;15.77;100.00;101138.22;5065526;28;20083;-67
2022/10/24 05:29:20;;;;;;;26.30;15.57;;;;;;;15.77;100.00;101135.59;5057209;28;20077;-65
2022/10/24 05:31:45;;;;;;;23.42;14.50;;;;;;;15.78;100.00;101141.69;5061180;28;20115;-67
2022/10/24 05:34:11;;;;;;;25.08;15.50;;;;;;;15.78;100.00;101146.94;5061337;28;20119;-66
2022/10/24 05:36:37;;;;;;;26.02;14.93;;;;;;;15.79;100.00;101149.41;5056856;28;20541;-63
2022/10/24 05:39:02;;;;;;;31.35;15.45;;;;;;;15.82;100.00;101150.88;5076571;28;20414;-63
2022/10/24 05:41:28;;;;;;;30.15;14.93;;;;;;;15.82;100.00;101148.25;5067829;28;20472;-65
2022/10/24 05:43:53;;;;;;;24.27;14.30;;;;;;;15.82;100.00;101149.06;5057923;28;20057;-64
2022/10/24 05:46:19;;;;;;;23.02;15.73;;;;;;;15.82;100.00;101156.16;5060536;28;20456;-65
2022/10/24 05:48:44;;;;;;;22.50;12.98;;;;;;;15.82;100.00;101156.97;5065164;28;20543;-65
2022/10/24 05:51:10;;;;;;;20.13;14.13;;;;;;;15.85;100.00;101155.81;5059071;28;20050;-65
2022/10/24 05:53:35;;;;;;;21.83;13.63;;;;;;;15.84;100.00;101165.50;5062912;28;20028;-63
2022/10/24 05:56:01;;;;;;;21.92;13.88;;;;;;;15.86;100.00;101167.97;5063998;28;20411;-68
2022/10/24 05:58:26;;;;;;;29.10;14.77;;;;;;;15.87;100.00;101165.19;5064299;28;20031;-67
2022/10/24 06:00:52;;;;;;;22.90;13.50;;;;;;;15.85;100.00;101159.28;5062096;28;20071;-68
2022/10/24 06:03:17;;;;;;;25.23;13.93;;;;;;;15.84;100.00;101155.00;5064681;28;20032;-68
2022/10/24 06:05:43;;;;;;;18.98;13.85;;;;;;;15.85;100.00;101150.56;5067575;28;20036;-65
2022/10/24 06:08:09;;;;;;;22.15;14.45;;;;;;;15.86;100.00;101154.84;5068292;28;20410;-67
2022/10/24 06:10:35;;;;;;;18.75;13.50;;;;;;;15.89;100.00;101165.03;5066321;28;20455;-66
2022/10/24 06:13:00;;;;;;;23.88;15.90;;;;;;;15.93;100.00;101166.34;5066882;28;20038;-66
2022/10/24 06:15:26;;;;;;;21.77;15.82;;;;;;;15.94;100.00;101162.72;5066879;28;20024;-67
2022/10/24 06:17:52;;;;;;;22.10;14.20;;;;;;;15.96;100.00;101158.13;5067790;28;20042;-65
2022/10/24 06:20:17;;;;;;;22.90;15.98;;;;;;;15.95;100.00;101161.75;5066609;28;20055;-64
2022/10/24 06:22:44;;;;;;;21.10;15.15;;;;;;;16.00;100.00;101164.72;5061359;28;20035;-70
2022/10/24 06:25:11;;;;;;;23.75;15.13;;;;;;;16.01;100.00;101150.59;5075981;28;20037;-64
2022/10/24 06:27:37;;;;;;;20.75;15.48;;;;;;;16.01;100.00;101150.59;5070754;28;20082;-64
2022/10/24 06:30:04;;;;;;;24.83;16.35;;;;;;;16.05;100.00;101158.97;5065779;28;20036;-69
2022/10/24 06:32:30;;;;;;;26.48;15.73;;;;;;;16.08;100.00;101163.88;5057734;28;20040;-66
2022/10/24 06:34:55;;;;;;;27.75;15.60;;;;;;;16.12;100.00;101159.94;5063054;28;20472;-65
2022/10/24 06:37:20;;;;;;;22.58;16.27;;;;;;;16.13;100.00;101158.94;5061128;28;20811;-65
2022/10/24 06:39:46;;;;;;;26.00;17.40;;;;;;;16.16;100.00;101166.50;5060430;28;20040;-64
2022/10/24 06:42:12;;;;;;;26.58;17.33;;;;;;;16.21;100.00;101170.28;5063937;28;20154;-68
2022/10/24 06:44:37;;;;;;;25.23;16.73;;;;;;;16.25;100.00;101173.41;5059954;28;20456;-69
2022/10/24 06:47:04;;;;;;;30.25;16.50;;;;;;;16.27;100.00;101164.38;5058429;28;20392;-69
2022/10/24 06:49:30;;;;;;;23.98;16.35;;;;;;;16.27;100.00;101169.66;5061710;28;20052;-66
2022/10/24 06:51:56;;;;;;;26.60;16.80;;;;;;;16.32;100.00;101170.97;5057844;28;20441;-68
2022/10/24 06:54:21;;;;;;;30.35;18.25;;;;;;;16.30;100.00;101170.31;5057716;28;20037;-70
2022/10/24 06:56:47;;;;;;;26.02;16.30;;;;;;;16.30;100.00;101179.00;5062645;28;20048;-68
2022/10/24 06:59:17;;;;;;;22.80;15.80;;;;;;;16.29;100.00;101179.19;5064246;28;20016;-70
2022/10/24 07:01:42;;;;;;;27.02;16.75;;;;;;;16.29;100.00;101181.81;5075628;28;20168;-69
2022/10/24 07:04:08;;;;;;;18.08;15.48;;;;;;;16.29;100.00;101190.50;5058749;28;20068;-70
2022/10/24 07:06:34;;;;;;;26.65;17.20;;;;;;;16.34;100.00;101188.22;5066142;28;20059;-65
2022/10/24 07:09:02;;;;;;;23.55;16.70;;;;;;;16.40;100.00;101186.75;5060775;28;20040;-66
2022/10/24 07:11:28;;;;;;;27.20;16.85;;;;;;;16.42;100.00;101190.03;5058546;28;20028;-71
2022/10/24 07:13:54;;;;;;;22.67;16.33;;;;;;;16.46;100.00;101178.19;5062838;28;20032;-69
2022/10/24 07:16:19;;;;;;;23.95;16.30;;;;;;;16.42;100.00;101188.22;5057982;28;20075;-66
2022/10/24 07:18:45;;;;;;;24.35;17.10;;;;;;;16.47;100.00;101193.00;5065421;28;20071;-68
2022/10/24 07:21:14;;;;;;;23.23;17.80;;;;;;;16.51;100.00;101194.31;5061488;28;20376;-66
2022/10/24 07:23:40;;;;;;;28.38;18.10;;;;;;;16.56;100.00;101202.50;5062743;28;20028;-70
2022/10/24 07:26:08;;;;;;;30.65;17.55;;;;;;;16.53;100.00;101194.97;5060814;28;20043;-68
2022/10/24 07:28:35;;;;;;;28.52;17.88;;;;;;;16.54;100.00;101186.88;5056615;28;20024;-67
2022/10/24 07:31:01;;;;;;;27.27;18.00;;;;;;;16.60;100.00;101194.09;5057712;28;20071;-67
2022/10/24 07:33:27;;;;;;;27.10;18.73;;;;;;;16.60;100.00;101194.09;5062439;28;20383;-68
2022/10/24 07:35:53;;;;;;;25.60;19.00;;;;;;;16.64;100.00;101184.09;5061907;28;20031;-66
2022/10/24 07:38:18;;;;;;;20.30;17.02;;;;;;;16.68;100.00;101190.69;5063397;28;20103;-67
2022/10/24 07:40:44;;;;;;;27.92;18.40;;;;;;;16.73;100.00;101183.13;5063489;28;20102;-68
2022/10/24 07:43:12;;;;;;;24.55;17.45;;;;;;;16.76;100.00;101180.16;5061688;28;20124;-66
2022/10/24 07:45:38;;;;;;;29.63;18.10;;;;;;;16.82;100.00;101178.66;5063937;28;20103;-70
2022/10/24 07:48:06;;;;;;;24.58;18.02;;;;;;;16.89;100.00;101185.72;5063682;28;20032;-69
2022/10/24 07:50:33;;;;;;;26.23;18.75;;;;;;;16.92;100.00;101188.03;5064709;28;20028;-67
2022/10/24 07:52:59;;;;;;;29.88;19.33;;;;;;;16.98;100.00;101193.59;5057780;28;20043;-67
2022/10/24 07:55:24;;;;;;;30.65;19.05;;;;;;;17.02;100.00;101197.50;5062166;28;20020;-65
2022/10/24 07:57:50;;;;;;;29.38;18.13;;;;;;;17.02;100.00;101192.25;5062262;28;20032;-67
2022/10/24 08:00:16;;;;;;;23.88;17.73;;;;;;;17.01;100.00;101198.53;5063911;28;20092;-67
2022/10/24 08:02:41;;;;;;;26.58;17.90;;;;;;;16.95;100.00;101196.56;5067830;28;20027;-67
2022/10/24 08:05:10;;;;;;;22.63;16.58;;;;;;;16.94;100.00;101194.94;5068684;28;20443;-69
2022/10/24 08:07:36;;;;;;;22.48;16.15;;;;;;;16.97;100.00;101194.59;5078520;28;20038;-70
2022/10/24 08:10:04;;;;;;;21.55;16.33;;;;;;;17.00;100.00;101195.06;5067654;28;20032;-69
2022/10/24 08:12:29;;;;;;;27.88;17.90;;;;;;;17.02;100.00;101197.50;5055105;28;20032;-66
2022/10/24 08:14:55;;;;;;;23.08;16.42;;;;;;;17.01;100.00;101190.63;5052584;28;20170;-69
2022/10/24 08:17:22;;;;;;;24.80;17.30;;;;;;;17.05;100.00;101197.19;5055254;28;20107;-68
2022/10/24 08:19:48;;;;;;;26.63;18.38;;;;;;;17.14;100.00;101185.63;5062738;28;20460;-66
2022/10/24 08:22:15;;;;;;;22.30;18.00;;;;;;;17.21;100.00;101187.41;5062077;28;20028;-68
2022/10/24 08:24:44;;;;;;;23.10;17.35;;;;;;;17.31;100.00;101189.88;5067502;28;20558;-67
2022/10/24 08:27:10;;;;;;;25.52;17.30;;;;;;;17.33;100.00;101189.69;5063273;28;20143;-68
2022/10/24 08:29:35;;;;;;;26.35;17.80;;;;;;;17.42;100.00;101188.66;5069110;28;20039;-69
2022/10/24 08:32:01;;;;;;;26.83;19.10;;;;;;;17.53;100.00;101191.72;5067865;28;20024;-69
2022/10/24 08:34:27;;;;;;;26.48;16.95;;;;;;;17.56;100.00;101183.47;5058471;28;20021;-64
2022/10/24 08:36:52;;;;;;;27.30;16.98;;;;;;;17.64;100.00;101182.63;5061576;28;20028;-63
2022/10/24 08:39:18;;;;;;;22.48;17.20;;;;;;;17.71;100.00;101188.03;5064130;28;20043;-67
2022/10/24 08:41:50;;;;;;;24.13;17.17;;;;;;;17.76;100.00;101189.16;5062979;28;20360;-68
2022/10/24 08:44:30;;;;;;;30.92;16.17;;;;;;;17.77;100.00;101187.34;5062097;28;20032;-67
2022/10/24 08:47:02;;;;;;;28.73;16.63;;;;;;;17.79;100.00;101180.91;5063092;28;20039;-69
2022/10/24 08:49:42;;;;;;;23.50;17.00;;;;;;;17.78;100.00;101175.81;5060688;28;20411;-66
2022/10/24 08:52:29;;;;;;;29.45;16.35;;;;;;;17.75;100.00;101170.91;5059926;28;20103;-68
2022/10/24 08:54:59;;;;;;;25.30;17.08;;;;;;;17.80;100.00;101168.56;5061624;28;20047;-69
2022/10/24 08:57:30;;;;;;;24.13;17.30;;;;;;;17.86;100.00;101170.50;5063971;28;20033;-70
2022/10/24 09:00:01;;;;;;;21.25;16.73;;;;;;;17.92;100.00;101161.06;5062698;28;20032;-68
2022/10/24 09:02:32;;;;;;;24.38;17.55;;;;;;;17.90;100.00;101166.53;5060941;28;20360;-67
2022/10/24 09:05:10;;;;;;;19.30;16.40;;;;;;;17.90;100.00;101164.72;5055083;28;20361;-67
2022/10/24 09:07:37;;;;;;;26.27;18.05;;;;;;;17.91;100.00;101157.63;5059857;28;20056;-66
2022/10/24 09:10:15;;;;;;;23.95;15.73;;;;;;;17.93;100.00;101162.72;5058593;28;20029;-71
2022/10/24 09:12:41;;;;;;;20.15;16.45;;;;;;;17.97;100.00;101166.63;5055293;28;20043;-66
2022/10/24 09:15:15;;;;;;;27.13;17.67;;;;;;;17.99;100.00;101162.81;5067101;28;20024;-65
2022/10/24 09:17:42;;;;;;;23.55;17.38;;;;;;;18.01;100.00;101162.63;5062997;28;20587;-66
2022/10/24 09:20:13;;;;;;;24.52;17.35;;;;;;;18.03;100.00;101158.81;5062083;28;20029;-67
2022/10/24 09:22:39;;;;;;;19.80;17.02;;;;;;;17.98;100.00;101160.34;5066650;28;20040;-66
2022/10/24 09:25:14;;;;;;;24.48;16.83;;;;;;;17.99;100.00;101159.34;5067849;28;20036;-67
2022/10/24 09:27:40;;;;;;;18.85;15.32;;;;;;;18.01;100.00;101160.81;5066071;28;21157;-66
2022/10/24 09:30:13;;;;;;;18.75;15.82;;;;;;;18.05;100.00;101159.47;5061583;28;20076;-65
2022/10/24 09:32:41;;;;;;;20.92;16.58;;;;;;;18.09;100.00;101159.94;5065323;28;20029;-69
2022/10/24 09:35:16;;;;;;;20.80;15.05;;;;;;;18.05;100.00;101156.84;5063631;28;20036;-68
2022/10/24 09:37:47;;;;;;;22.75;15.65;;;;;;;18.09;100.00;101159.94;5057650;28;20137;-66
2022/10/24 09:40:21;;;;;;;20.80;14.18;;;;;;;18.08;100.00;101159.13;5064559;28;20090;-66
2022/10/24 09:42:53;;;;;;;20.30;13.43;;;;;;;18.09;100.00;101160.75;5057764;28;20052;-69
2022/10/24 09:45:36;;;;;;;18.02;11.73;;;;;;;18.11;100.00;101150.03;5061835;28;20471;-69
2022/10/24 09:48:24;;;;;;;14.90;11.63;;;;;;;18.18;100.00;101149.16;5055854;28;20077;-71
2022/10/24 09:50:52;;;;;;;20.58;12.57;;;;;;;18.31;100.00;101153.00;5062196;28;20044;-67
2022/10/24 09:53:25;;;;;;;14.02;11.93;;;;;;;18.35;100.00;101155.13;5061831;28;20452;-68
2022/10/24 09:55:57;;;;;;;16.30;10.82;;;;;;;18.35;100.00;101159.56;5062835;28;20125;-67
2022/10/24 09:58:34;;;;;;;17.60;11.60;;;;;;;18.35;100.00;101160.41;5056870;28;20056;-67
2022/10/24 10:01:17;;;;;;;20.13;11.77;;;;;;;18.34;100.00;101155.28;5065111;28;20032;-68
2022/10/24 10:03:58;;;;;;;19.55;12.43;;;;;;;18.37;100.00;101158.41;5062411;28;20025;-65
2022/10/24 10:06:24;;;;;;;17.02;11.85;;;;;;;18.37;100.00;101150.50;5060392;28;20032;-68
2022/10/24 10:08:52;;;;;;;15.95;11.80;;;;;;;18.39;100.00;101152.94;5062849;28;20463;-68
2022/10/24 10:11:25;;;;;;;14.95;10.90;;;;;;;18.35;100.00;101144.56;5055539;28;20075;-66
2022/10/24 10:13:53;;;;;;;16.90;12.27;;;;;;;18.36;100.00;101148.03;5057193;28;20372;-69
2022/10/24 10:16:37;;;;;;;19.13;12.07;;;;;;;18.36;100.00;101154.13;5076566;28;20033;-67
2022/10/24 10:19:14;;;;;;;17.05;12.20;;;;;;;18.38;100.00;101146.84;5063749;28;20040;-66
2022/10/24 10:22:00;;;;;;;16.63;12.27;;;;;;;18.41;100.00;101148.31;5062564;28;20360;-66
2022/10/24 10:24:26;;;;;;;;;;;;;;;18.36;100.00;101155.94;5061400;28;20509;-69
2022/10/24 10:26:51;;;;;;;;;;;;;;;18.33;100.00;101149.19;5057374;28;20023;-65
2022/10/24 10:29:17;;;;;;;18.30;11.20;;;;;;;18.41;100.00;101148.31;5058668;28;19968;-66
2022/10/24 10:31:48;;;;;;;15.30;11.57;;;;;;;18.44;100.00;101147.94;5065052;28;20074;-67
2022/10/24 10:34:35;;;;;;;15.50;10.57;;;;;;;18.44;100.00;101143.47;5054000;28;20154;-69
2022/10/24 10:37:24;;;;;;;16.98;10.57;;;;;;;18.45;100.00;101139.84;5056713;28;20029;-66
2022/10/24 10:40:19;;;;;;;16.67;11.55;;;;;;;18.40;100.00;101136.94;5054672;28;20056;-66
2022/10/24 10:43:12;;;;;;;17.35;13.02;;;;;;;18.46;100.00;101138.84;5063210;28;20086;-65
2022/10/24 10:46:06;;;;;;;15.45;11.13;;;;;;;18.52;100.00;101135.47;5064058;28;20036;-68
2022/10/24 10:48:50;;;;;;;17.90;11.90;;;;;;;18.56;100.00;101138.56;5047645;28;20072;-67
2022/10/24 10:51:38;;;;;;;14.60;11.70;;;;;;;18.64;100.00;101138.53;5064438;28;20368;-68
2022/10/24 10:54:06;;;;;;;17.58;12.15;;;;;;;18.65;100.00;101136.72;5059609;28;20056;-66
2022/10/24 10:56:52;;;;;;;15.65;12.40;;;;;;;18.68;100.00;101137.19;5064064;28;20364;-66
2022/10/24 10:59:36;;;;;;;17.25;10.90;;;;;;;18.68;100.00;101134.53;5061577;28;20063;-68
2022/10/24 11:02:26;;;;;;;18.33;11.98;;;;;;;18.70;100.00;101126.44;5056882;28;20040;-65
2022/10/24 11:05:09;;;;;;;18.10;11.82;;;;;;;18.80;100.00;101122.53;5060049;28;20047;-65
2022/10/24 11:07:43;;;;;;;17.20;11.57;;;;;;;18.83;100.00;101126.63;5052859;28;20037;-64
2022/10/24 11:10:14;;;;;;;20.45;12.30;;;;;;;18.81;100.00;101116.25;5050753;28;20033;-65
2022/10/24 11:12:41;;;;;;;22.92;11.70;;;;;;;18.79;100.00;101117.44;5063362;28;20035;-66